Airfield :
LOGIN :

Register | Disclaimer

   EN    FR    IT 

 










Legend :    VFR   Marginal VFR   IFR   Intensive IFR   Very Intensive IFR
Visi :
Ceiling :
>= 8 km
>= 3000ft
5 to 8 km
1000 to 3000 ft
1500m to 5 km
500 to 1000 ft
800 to 1500m
200 to 500 ft
< 800m
< 200 ft
Symbols :   Thunderstorms  Fog  Heavy snow  Heavy precipitations  Wind > 20 kt
SIGMETs :     Misc.  Thunderstorms  Icing  Turbulence  Mountain Waves  Volcanic Ashes







- Airport Elevation : 3 ft
- IATA code : LWR


EHLW - Leuuwarden Air Base

CURRENT METAR :
  • 190325Z AUTO 18008KT 150V230 4500 BR OVC027 02/M00 Q1020 GRN

EXPIRED METARs :
  • 190255Z AUTO 18006KT 150V210 4600 BR SCT042 BKN047 OVC070 02/M00 Q1020 GRN
  • 190239Z AUTO 18006KT 150V210 4200 BR FEW046 BKN071 OVC110 02/M00 Q1020 GRN
  • 190225Z AUTO 18007KT 150V220 3700 BR BKN035 BKN047 OVC120 02/M00 Q1020 GRN
  • 190219Z AUTO 18007KT 150V210 3600 R23/P3000N BR SCT035 BKN047 OVC120 01/M00 Q1020 YLO
  • 190155Z AUTO 17006KT 150V210 3900 BR FEW028 SCT035 BKN046 01/M00 Q1020 GRN
  • 190125Z AUTO 17005KT 3800 BR FEW029 OVC032 01/M00 Q1021 GRN
  • 190055Z AUTO 17005KT 4300 BR BKN029 BKN032 OVC130 01/M00 Q1021 GRN

Expired Forecast.
No reported NOTAMs for that airfield.



MET'MAP, your aeronautical weather chart ! - Copyright ORBIFLY December 2007 - Disclaimer

ORBIFLY MET'MAP TEAM :

Programming & Development : Alexandra Zaïnal
Concept & Development : Baudouin d'Aumeries
Co-Development & Prog : Marc-Olivier Méhu
Technical & hardware support : Manuel Goepfert

Contact : metmap@orbifly.com




SOURCES & CREDITS :

   NOAA